createdAt,value
2019-02-08T00:00:11.115Z,0.00
2019-02-08T00:01:11.325Z,0.00
2019-02-08T00:02:11.535Z,0.00
2019-02-08T00:03:11.767Z,0.00
2019-02-08T00:04:11.969Z,0.00
2019-02-08T00:05:12.223Z,0.00
2019-02-08T00:06:12.356Z,0.00
2019-02-08T00:07:12.571Z,0.00
2019-02-08T00:08:12.792Z,0.00
2019-02-08T00:09:13.005Z,0.00
2019-02-08T00:10:13.202Z,0.00
2019-02-08T00:11:13.393Z,0.00
2019-02-08T00:12:13.623Z,0.00
2019-02-08T00:13:13.883Z,0.00
2019-02-08T00:14:14.021Z,0.00
2019-02-08T00:15:14.330Z,0.00
2019-02-08T00:16:14.469Z,0.00
2019-02-08T00:17:14.654Z,0.00
2019-02-08T00:18:14.891Z,0.00
2019-02-08T00:19:15.095Z,0.00
2019-02-08T00:20:15.307Z,0.00
2019-02-08T00:21:15.568Z,0.00
2019-02-08T00:22:15.721Z,0.00
2019-02-08T00:23:25.998Z,0.00
2019-02-08T00:24:17.163Z,0.00
2019-02-08T00:25:16.337Z,0.00
2019-02-08T00:26:16.588Z,0.00
2019-02-08T00:27:16.759Z,0.00
2019-02-08T00:28:16.986Z,0.00
2019-02-08T00:29:17.170Z,0.00
2019-02-08T00:30:17.506Z,0.00
2019-02-08T00:31:17.609Z,0.00
2019-02-08T00:32:17.791Z,0.00
2019-02-08T00:33:18.002Z,0.00
2019-02-08T00:34:18.207Z,0.00
2019-02-08T00:35:18.441Z,0.00
2019-02-08T00:36:18.663Z,0.00
2019-02-08T00:37:18.844Z,0.00
2019-02-08T00:38:19.142Z,0.00
2019-02-08T00:39:19.256Z,0.00
2019-02-08T00:40:19.474Z,0.00
2019-02-08T00:41:19.848Z,0.00
2019-02-08T00:42:19.881Z,0.00
2019-02-08T00:43:20.107Z,0.00
2019-02-08T00:44:20.279Z,0.00
2019-02-08T00:45:20.521Z,0.00
2019-02-08T00:46:20.817Z,0.00
2019-02-08T00:47:20.925Z,0.00
2019-02-08T00:48:21.149Z,0.00
2019-02-08T00:49:21.338Z,0.00
2019-02-08T00:50:21.550Z,0.00
2019-02-08T00:51:21.770Z,0.00
2019-02-08T00:52:21.964Z,0.00
2019-02-08T00:53:22.188Z,0.00
2019-02-08T00:54:22.416Z,0.00
2019-02-08T00:55:22.567Z,0.00
2019-02-08T00:56:22.778Z,0.00
2019-02-08T00:57:22.981Z,0.00
2019-02-08T00:58:23.211Z,0.00
2019-02-08T00:59:23.405Z,0.00
2019-02-08T01:00:23.631Z,0.00
2019-02-08T01:01:23.839Z,0.00
2019-02-08T01:02:24.047Z,0.00
2019-02-08T01:03:24.330Z,0.00
2019-02-08T01:04:24.427Z,0.00
2019-02-08T01:05:24.659Z,0.00
2019-02-08T01:06:24.875Z,0.00
2019-02-08T01:07:25.049Z,0.00
2019-02-08T01:08:25.278Z,0.00
2019-02-08T01:09:25.497Z,0.00
2019-02-08T01:10:25.704Z,0.00
2019-02-08T01:11:26.005Z,0.00
2019-02-08T01:12:26.084Z,0.00
2019-02-08T01:13:26.304Z,0.00
2019-02-08T01:14:26.752Z,0.00
2019-02-08T01:15:26.751Z,0.00
2019-02-08T01:16:26.957Z,0.00
2019-02-08T01:17:27.152Z,0.00
2019-02-08T01:18:27.356Z,0.00
2019-02-08T01:19:27.716Z,0.00
2019-02-08T01:20:27.812Z,0.00
2019-02-08T01:21:28.027Z,0.00
2019-02-08T01:22:28.215Z,0.00
2019-02-08T01:23:28.408Z,0.00
2019-02-08T01:24:28.643Z,0.00
2019-02-08T01:25:28.845Z,0.00
2019-02-08T01:26:29.061Z,0.00
2019-02-08T01:27:29.286Z,0.00
2019-02-08T01:28:29.442Z,0.00
2019-02-08T01:29:29.659Z,0.00
2019-02-08T01:30:29.872Z,0.00
2019-02-08T01:31:30.087Z,0.00
2019-02-08T01:32:30.277Z,0.00
2019-02-08T01:33:30.488Z,0.00
2019-02-08T01:34:30.704Z,0.00
2019-02-08T01:35:30.974Z,0.00
2019-02-08T01:36:31.114Z,0.00
2019-02-08T01:37:31.316Z,0.00
2019-02-08T01:38:31.521Z,0.00
2019-02-08T01:39:31.758Z,0.00
2019-02-08T01:40:31.949Z,0.00
2019-02-08T01:41:32.148Z,0.00
2019-02-08T01:42:32.355Z,0.00
2019-02-08T01:43:32.580Z,0.00
2019-02-08T01:44:32.886Z,0.00
2019-02-08T01:45:32.995Z,0.00
2019-02-08T01:46:33.184Z,0.00
2019-02-08T01:47:33.391Z,0.00
2019-02-08T01:48:33.598Z,0.00
2019-02-08T01:49:33.825Z,0.00
2019-02-08T01:50:34.022Z,0.00
2019-02-08T01:51:34.232Z,0.00
2019-02-08T01:52:34.523Z,0.00
2019-02-08T01:53:34.631Z,0.00
2019-02-08T01:54:34.854Z,0.00
2019-02-08T01:55:35.060Z,0.00
2019-02-08T01:56:35.287Z,0.00
2019-02-08T01:57:35.448Z,0.00
2019-02-08T01:58:35.681Z,0.00
2019-02-08T01:59:35.905Z,0.00
2019-02-08T02:00:36.189Z,0.00
2019-02-08T02:01:36.303Z,0.00
2019-02-08T02:02:36.495Z,0.00
2019-02-08T02:03:36.709Z,0.00
2019-02-08T02:04:36.930Z,0.00
2019-02-08T02:05:37.132Z,0.00
2019-02-08T02:06:37.348Z,0.00
2019-02-08T02:07:37.538Z,0.00
2019-02-08T02:08:37.784Z,0.00
2019-02-08T02:09:37.949Z,0.00
2019-02-08T02:10:38.170Z,0.00
2019-02-08T02:11:38.373Z,0.00
2019-02-08T02:12:38.559Z,0.00
2019-02-08T02:13:38.765Z,0.00
2019-02-08T02:14:38.980Z,0.00
2019-02-08T02:15:39.203Z,0.00
2019-02-08T02:16:39.437Z,0.00
2019-02-08T02:17:39.710Z,0.00
2019-02-08T02:18:39.838Z,0.00
2019-02-08T02:19:40.048Z,0.00
2019-02-08T02:20:40.245Z,0.00
2019-02-08T02:21:40.462Z,0.00
2019-02-08T02:22:40.689Z,0.00
2019-02-08T02:23:40.895Z,0.00
2019-02-08T02:24:41.141Z,0.00
2019-02-08T02:25:41.440Z,0.00
2019-02-08T02:26:41.521Z,0.00
2019-02-08T02:27:41.749Z,0.00
2019-02-08T02:28:41.935Z,0.00
2019-02-08T02:29:42.163Z,0.00
2019-02-08T02:30:42.347Z,0.00
2019-02-08T02:31:42.540Z,0.00
2019-02-08T02:32:42.782Z,0.00
2019-02-08T02:33:43.057Z,0.00
2019-02-08T02:34:43.206Z,0.00
2019-02-08T02:35:43.382Z,0.00
2019-02-08T02:36:43.601Z,0.00
2019-02-08T02:37:43.850Z,0.00
2019-02-08T02:38:44.032Z,0.00
2019-02-08T02:39:44.262Z,0.00
2019-02-08T02:40:44.456Z,0.00
2019-02-08T02:41:44.719Z,0.00
2019-02-08T02:42:44.873Z,0.00
2019-02-08T02:43:45.086Z,0.00
2019-02-08T02:44:45.279Z,0.00
2019-02-08T02:45:45.486Z,0.00
2019-02-08T02:46:45.684Z,0.00
2019-02-08T02:47:45.894Z,0.00
2019-02-08T02:48:46.127Z,0.00
2019-02-08T02:49:46.415Z,0.00
2019-02-08T02:50:46.511Z,0.00
2019-02-08T02:51:46.726Z,0.00
2019-02-08T02:52:47.183Z,0.00
2019-02-08T02:53:47.146Z,0.00
2019-02-08T02:54:47.375Z,0.00
2019-02-08T02:55:47.588Z,0.00
2019-02-08T02:56:47.786Z,0.00
2019-02-08T02:57:48.053Z,0.00
2019-02-08T02:58:48.272Z,0.00
2019-02-08T02:59:48.429Z,0.00
2019-02-08T03:00:48.626Z,0.00
2019-02-08T03:01:48.826Z,0.00
2019-02-08T03:02:49.051Z,0.00
2019-02-08T03:03:49.241Z,0.00
2019-02-08T03:04:49.468Z,0.00
2019-02-08T03:05:49.658Z,0.00
2019-02-08T03:06:49.967Z,0.00
2019-02-08T03:07:50.086Z,0.00
2019-02-08T03:08:50.277Z,0.00
2019-02-08T03:09:50.483Z,0.00
2019-02-08T03:10:50.704Z,0.00
2019-02-08T03:11:50.942Z,0.00
2019-02-08T03:12:51.149Z,0.00
2019-02-08T03:13:51.338Z,0.00
2019-02-08T03:14:51.645Z,0.00
2019-02-08T03:15:51.760Z,0.00
2019-02-08T03:16:51.970Z,0.00
2019-02-08T03:17:52.204Z,0.00
2019-02-08T03:18:52.386Z,0.00
2019-02-08T03:19:52.595Z,0.00
2019-02-08T03:20:52.799Z,0.00
2019-02-08T03:21:52.992Z,0.00
2019-02-08T03:22:53.276Z,0.00
2019-02-08T03:23:53.405Z,0.00
2019-02-08T03:24:53.621Z,0.00
2019-02-08T03:25:53.863Z,0.00
2019-02-08T03:26:54.050Z,0.00
2019-02-08T03:27:54.266Z,0.00
2019-02-08T03:28:54.468Z,0.00
2019-02-08T03:29:54.681Z,0.00
2019-02-08T03:30:54.992Z,0.00
2019-02-08T03:31:55.117Z,0.00
2019-02-08T03:32:55.338Z,0.00
2019-02-08T03:33:55.546Z,0.00
2019-02-08T03:34:55.742Z,0.00
2019-02-08T03:35:55.988Z,0.00
2019-02-08T03:36:56.158Z,0.00
2019-02-08T03:37:56.519Z,0.00
2019-02-08T03:38:56.618Z,0.00
2019-02-08T03:39:56.883Z,0.00
2019-02-08T03:40:57.027Z,0.00
2019-02-08T03:41:57.199Z,0.00
2019-02-08T03:42:57.420Z,0.00
2019-02-08T03:43:57.594Z,0.00
2019-02-08T03:44:57.818Z,0.00
2019-02-08T03:45:58.055Z,0.00
2019-02-08T03:46:58.282Z,0.00
2019-02-08T03:47:58.550Z,0.00
2019-02-08T03:48:58.632Z,0.00
2019-02-08T03:49:58.860Z,0.00
2019-02-08T03:50:59.091Z,0.00
2019-02-08T03:51:59.297Z,0.00
2019-02-08T03:52:59.505Z,0.00
2019-02-08T03:53:59.691Z,0.00
2019-02-08T03:54:59.890Z,0.00
2019-02-08T03:56:00.249Z,0.00
2019-02-08T03:57:00.320Z,0.00
2019-02-08T03:58:00.540Z,0.00
2019-02-08T03:59:00.729Z,0.00
2019-02-08T04:00:00.938Z,0.00
2019-02-08T04:01:01.167Z,0.00
2019-02-08T04:02:01.382Z,0.00
2019-02-08T04:03:01.598Z,0.00
2019-02-08T04:04:01.844Z,0.00
2019-02-08T04:05:01.981Z,0.00
2019-02-08T04:06:02.195Z,0.00
2019-02-08T04:07:02.413Z,0.00
2019-02-08T04:08:02.639Z,0.00
2019-02-08T04:09:02.836Z,0.00
2019-02-08T04:10:03.047Z,0.00
2019-02-08T04:11:03.295Z,0.00
2019-02-08T04:12:03.515Z,0.00
2019-02-08T04:13:03.719Z,0.00
2019-02-08T04:14:03.881Z,0.00
2019-02-08T04:15:04.098Z,0.00
2019-02-08T04:16:04.327Z,0.00
2019-02-08T04:17:04.492Z,0.00
2019-02-08T04:18:04.718Z,0.00
2019-02-08T04:19:04.911Z,0.00
2019-02-08T04:20:05.136Z,0.00
2019-02-08T04:21:05.521Z,0.00
2019-02-08T04:22:05.540Z,0.00
2019-02-08T04:23:05.754Z,0.00
2019-02-08T04:24:05.960Z,0.00
2019-02-08T04:25:06.172Z,0.00
2019-02-08T04:26:06.390Z,0.00
2019-02-08T04:27:06.595Z,0.00
2019-02-08T04:28:06.780Z,0.00
2019-02-08T04:29:07.188Z,0.00
2019-02-08T04:30:07.462Z,0.00
2019-02-08T04:31:07.454Z,0.00
2019-02-08T04:32:07.957Z,0.00
2019-02-08T04:33:07.841Z,0.00
2019-02-08T04:34:08.070Z,0.00
2019-02-08T04:35:08.303Z,0.00
2019-02-08T04:36:08.517Z,0.00
2019-02-08T04:37:08.984Z,0.00
2019-02-08T04:38:08.893Z,0.00
2019-02-08T04:39:09.098Z,0.00
2019-02-08T04:40:09.292Z,0.00
2019-02-08T04:41:09.530Z,0.00
2019-02-08T04:42:09.736Z,0.00
2019-02-08T04:43:09.928Z,0.00
2019-02-08T04:44:10.150Z,0.00
2019-02-08T04:45:10.380Z,0.00
2019-02-08T04:46:10.566Z,0.00
2019-02-08T04:47:10.784Z,0.00
2019-02-08T04:48:10.989Z,0.00
2019-02-08T04:49:11.210Z,0.00
2019-02-08T04:50:11.402Z,0.00
2019-02-08T04:51:11.636Z,0.00
2019-02-08T04:52:11.816Z,0.00
2019-02-08T04:53:12.045Z,0.00
2019-02-08T04:54:12.337Z,0.00
2019-02-08T04:55:12.440Z,0.00
2019-02-08T04:56:12.647Z,0.00
2019-02-08T04:57:12.866Z,0.00
2019-02-08T04:58:13.089Z,0.00
2019-02-08T04:59:13.314Z,0.00
2019-02-08T05:00:13.491Z,0.00
2019-02-08T05:01:13.722Z,0.00
2019-02-08T05:02:14.060Z,0.00
2019-02-08T05:03:14.213Z,0.00
2019-02-08T05:04:14.459Z,0.00
2019-02-08T05:05:14.648Z,0.00
2019-02-08T05:06:14.880Z,0.00
2019-02-08T05:07:15.068Z,0.00
2019-02-08T05:08:15.296Z,0.00
2019-02-08T05:09:15.551Z,0.00
2019-02-08T05:10:15.810Z,0.00
2019-02-08T05:11:15.956Z,0.00
2019-02-08T05:12:16.145Z,0.00
2019-02-08T05:13:16.358Z,0.00
2019-02-08T05:14:16.615Z,0.00
2019-02-08T05:15:16.804Z,0.00
2019-02-08T05:16:17.032Z,0.00
2019-02-08T05:17:17.229Z,0.00
2019-02-08T05:18:17.454Z,0.00
2019-02-08T05:19:17.695Z,0.00
2019-02-08T05:20:17.862Z,0.00
2019-02-08T05:21:18.093Z,0.00
2019-02-08T05:22:18.287Z,0.00
2019-02-08T05:23:18.501Z,0.00
2019-02-08T05:24:18.722Z,0.00
2019-02-08T05:25:18.934Z,0.00
2019-02-08T05:26:19.231Z,0.00
2019-02-08T05:27:19.414Z,0.00
2019-02-08T05:28:19.601Z,0.00
2019-02-08T05:29:19.814Z,0.00
2019-02-08T05:30:20.028Z,0.00
2019-02-08T05:31:20.261Z,0.00
2019-02-08T05:32:20.473Z,0.00
2019-02-08T05:33:20.670Z,0.00
2019-02-08T05:34:20.917Z,0.00
2019-02-08T05:35:21.157Z,0.00
2019-02-08T05:36:21.240Z,0.00
2019-02-08T05:37:21.481Z,0.00
2019-02-08T05:38:21.661Z,0.00
2019-02-08T05:39:21.900Z,0.00
2019-02-08T05:40:22.084Z,0.00
2019-02-08T05:41:22.306Z,0.00
2019-02-08T05:42:22.524Z,0.00
2019-02-08T05:43:23.040Z,0.00
2019-02-08T05:44:23.135Z,0.00
2019-02-08T05:45:23.365Z,0.00
2019-02-08T05:46:23.570Z,0.00
2019-02-08T05:47:23.801Z,0.00
2019-02-08T05:48:24.013Z,0.00
2019-02-08T05:49:24.225Z,0.00
2019-02-08T05:50:24.429Z,0.00
2019-02-08T05:51:24.700Z,0.00
2019-02-08T05:52:24.880Z,0.00
2019-02-08T05:53:25.076Z,0.00
2019-02-08T05:54:25.329Z,0.00
2019-02-08T05:55:25.492Z,0.00
2019-02-08T05:56:25.719Z,0.00
2019-02-08T05:57:25.958Z,0.00
2019-02-08T05:58:26.146Z,0.00
2019-02-08T05:59:26.475Z,0.00
2019-02-08T06:00:26.532Z,0.00
2019-02-08T06:01:26.756Z,0.00
2019-02-08T06:02:27.013Z,0.00
2019-02-08T06:03:27.220Z,0.00
2019-02-08T06:04:27.445Z,0.00
2019-02-08T06:05:27.639Z,0.00
2019-02-08T06:06:27.838Z,0.00
2019-02-08T06:07:28.131Z,0.00
2019-02-08T06:08:28.337Z,0.00
2019-02-08T06:09:28.735Z,0.00
2019-02-08T06:10:28.702Z,0.00
2019-02-08T06:11:28.902Z,0.00
2019-02-08T06:12:29.155Z,0.00
2019-02-08T06:13:29.350Z,0.00
2019-02-08T06:14:29.582Z,0.00
2019-02-08T06:15:29.793Z,0.00
2019-02-08T06:16:30.107Z,0.00
2019-02-08T06:17:30.252Z,0.00
2019-02-08T06:18:30.432Z,0.00
2019-02-08T06:19:30.656Z,0.00
2019-02-08T06:20:30.853Z,0.00
2019-02-08T06:21:31.070Z,0.00
2019-02-08T06:22:31.297Z,0.00
2019-02-08T06:23:31.498Z,0.00
2019-02-08T06:24:31.795Z,0.00
2019-02-08T06:25:31.922Z,0.00
2019-02-08T06:26:32.140Z,0.00
2019-02-08T06:27:32.416Z,0.00
2019-02-08T06:28:32.567Z,0.00
2019-02-08T06:29:34.163Z,5.62
2019-02-08T06:30:32.995Z,5.62
2019-02-08T06:31:33.213Z,5.62
2019-02-08T06:32:33.472Z,5.62
2019-02-08T06:33:33.610Z,5.62
2019-02-08T06:34:33.861Z,5.62
2019-02-08T06:35:34.059Z,5.62
2019-02-08T06:36:34.273Z,11.25
2019-02-08T06:37:34.538Z,11.25
2019-02-08T06:38:34.681Z,11.25
2019-02-08T06:39:34.916Z,11.25
2019-02-08T06:40:35.161Z,11.25
2019-02-08T06:41:35.351Z,16.88
2019-02-08T06:42:35.632Z,16.88
2019-02-08T06:43:35.791Z,16.88
2019-02-08T06:44:35.995Z,16.88
2019-02-08T06:45:36.223Z,22.50
2019-02-08T06:46:36.454Z,22.50
2019-02-08T06:47:36.713Z,22.50
2019-02-08T06:48:36.910Z,28.12
2019-02-08T06:49:37.181Z,28.12
2019-02-08T06:50:37.328Z,28.12
2019-02-08T06:51:37.546Z,28.12
2019-02-08T06:52:37.790Z,33.75
2019-02-08T06:53:37.973Z,33.75
2019-02-08T06:54:38.186Z,33.75
2019-02-08T06:55:38.422Z,39.38
2019-02-08T06:56:38.633Z,39.38
2019-02-08T06:57:38.954Z,39.38
2019-02-08T06:58:39.058Z,39.38
2019-02-08T06:59:39.260Z,45.00
2019-02-08T07:00:39.517Z,45.00
2019-02-08T07:01:39.725Z,50.62
2019-02-08T07:02:39.958Z,56.25
2019-02-08T07:03:40.165Z,56.25
2019-02-08T07:04:40.366Z,56.25
2019-02-08T07:05:40.649Z,56.25
2019-02-08T07:06:40.783Z,56.25
2019-02-08T07:07:41.020Z,56.25
2019-02-08T07:08:41.228Z,61.88
2019-02-08T07:09:41.432Z,61.88
2019-02-08T07:10:41.650Z,61.88
2019-02-08T07:11:41.852Z,61.88
2019-02-08T07:12:42.094Z,67.50
2019-02-08T07:13:42.394Z,67.50
2019-02-08T07:14:42.501Z,67.50
2019-02-08T07:15:42.725Z,73.12
2019-02-08T07:16:42.920Z,73.12
2019-02-08T07:17:43.163Z,73.12
2019-02-08T07:18:43.361Z,73.12
2019-02-08T07:19:43.584Z,78.75
2019-02-08T07:20:43.826Z,78.75
2019-02-08T07:21:44.071Z,78.75
2019-02-08T07:22:44.341Z,84.38
2019-02-08T07:23:44.445Z,84.38
2019-02-08T07:24:44.659Z,84.38
2019-02-08T07:25:44.892Z,84.38
2019-02-08T07:26:45.100Z,84.38
2019-02-08T07:27:45.308Z,84.38
2019-02-08T07:28:45.526Z,90.00
2019-02-08T07:29:45.756Z,90.00
2019-02-08T07:30:46.077Z,90.00
2019-02-08T07:31:46.162Z,95.62
2019-02-08T07:32:46.406Z,95.62
2019-02-08T07:33:46.657Z,95.62
2019-02-08T07:34:46.834Z,95.62
2019-02-08T07:35:47.060Z,101.25
2019-02-08T07:36:47.256Z,95.62
2019-02-08T07:37:47.475Z,101.25
2019-02-08T07:38:47.835Z,106.88
2019-02-08T07:39:47.890Z,106.88
2019-02-08T07:40:48.126Z,106.88
2019-02-08T07:41:48.319Z,106.88
2019-02-08T07:42:48.533Z,112.50
2019-02-08T07:43:48.791Z,112.50
2019-02-08T07:44:48.964Z,112.50
2019-02-08T07:45:49.194Z,112.50
2019-02-08T07:46:49.455Z,112.50
2019-02-08T07:47:49.576Z,118.12
2019-02-08T07:48:49.829Z,118.12
2019-02-08T07:49:50.262Z,118.12
2019-02-08T07:50:50.261Z,118.12
2019-02-08T07:51:50.453Z,123.75
2019-02-08T07:52:50.666Z,123.75
2019-02-08T07:53:50.925Z,123.75
2019-02-08T07:54:51.151Z,123.75
2019-02-08T07:55:51.318Z,129.38
2019-02-08T07:56:51.525Z,129.38
2019-02-08T07:57:51.734Z,129.38
2019-02-08T07:58:52.010Z,129.38
2019-02-08T07:59:52.178Z,129.38
2019-02-08T08:00:52.437Z,129.38
2019-02-08T08:01:52.623Z,135.00
2019-02-08T08:02:52.879Z,146.25
2019-02-08T08:04:00.870Z,151.88
2019-02-08T08:04:54.250Z,157.50
2019-02-08T08:05:53.495Z,163.12
2019-02-08T08:06:53.685Z,174.38
2019-02-08T08:07:53.908Z,168.75
2019-02-08T08:08:54.172Z,180.00
2019-02-08T08:09:54.336Z,180.00
2019-02-08T08:10:54.574Z,180.00
2019-02-08T08:11:54.886Z,163.12
2019-02-08T08:12:54.979Z,163.12
2019-02-08T08:13:55.234Z,168.75
2019-02-08T08:14:55.388Z,168.75
2019-02-08T08:15:55.635Z,163.12
2019-02-08T08:16:55.852Z,163.12
2019-02-08T08:17:56.063Z,163.12
2019-02-08T08:18:56.327Z,168.75
2019-02-08T08:19:56.559Z,168.75
2019-02-08T08:20:56.720Z,180.00
2019-02-08T08:21:56.930Z,185.62
2019-02-08T08:22:57.144Z,180.00
2019-02-08T08:23:57.674Z,168.75
2019-02-08T08:24:57.574Z,180.00
2019-02-08T08:25:57.794Z,163.12
2019-02-08T08:26:57.992Z,157.50
2019-02-08T08:27:58.245Z,163.12
2019-02-08T08:28:58.448Z,168.75
2019-02-08T08:29:58.636Z,185.62
2019-02-08T08:30:58.874Z,196.88
2019-02-08T08:31:59.072Z,191.25
2019-02-08T08:32:59.280Z,191.25
2019-02-08T08:33:59.511Z,185.62
2019-02-08T08:34:59.712Z,185.62
2019-02-08T08:36:00.005Z,202.50
2019-02-08T08:37:00.162Z,191.25
2019-02-08T08:38:00.368Z,219.38
2019-02-08T08:39:00.597Z,241.88
2019-02-08T08:40:00.806Z,236.25
2019-02-08T08:41:01.023Z,230.62
2019-02-08T08:42:01.223Z,225.00
2019-02-08T08:43:01.425Z,219.38
2019-02-08T08:44:01.684Z,225.00
2019-02-08T08:45:02.001Z,230.62
2019-02-08T08:46:02.112Z,230.62
2019-02-08T08:47:02.296Z,219.38
2019-02-08T08:48:02.525Z,202.50
2019-02-08T08:49:02.780Z,180.00
2019-02-08T08:50:02.974Z,174.38
2019-02-08T08:51:03.184Z,174.38
2019-02-08T08:52:03.399Z,185.62
2019-02-08T08:53:03.728Z,196.88
2019-02-08T08:54:03.837Z,202.50
2019-02-08T08:55:04.045Z,213.75
2019-02-08T08:56:04.269Z,202.50
2019-02-08T08:57:04.488Z,180.00
2019-02-08T08:58:04.689Z,174.38
2019-02-08T08:59:04.942Z,168.75
2019-02-08T09:00:05.132Z,168.75
2019-02-08T09:01:05.418Z,168.75
2019-02-08T09:02:05.559Z,168.75
2019-02-08T09:03:05.760Z,168.75
2019-02-08T09:04:06.014Z,168.75
2019-02-08T09:05:06.223Z,174.38
2019-02-08T09:06:08.533Z,180.00
2019-02-08T09:07:06.674Z,185.62
2019-02-08T09:08:06.867Z,202.50
2019-02-08T09:09:07.144Z,225.00
2019-02-08T09:10:07.279Z,225.00
2019-02-08T09:11:07.506Z,236.25
2019-02-08T09:12:07.729Z,253.12
2019-02-08T09:13:14.545Z,270.00
2019-02-08T09:14:09.162Z,281.25
2019-02-08T09:15:08.341Z,292.50
2019-02-08T09:16:08.581Z,286.88
2019-02-08T09:17:08.845Z,281.25
2019-02-08T09:18:09.065Z,270.00
2019-02-08T09:19:09.232Z,264.38
2019-02-08T09:20:09.418Z,247.50
2019-02-08T09:21:09.655Z,230.62
2019-02-08T09:22:09.942Z,213.75
2019-02-08T09:23:10.072Z,202.50
2019-02-08T09:24:10.302Z,196.88
2019-02-08T09:25:10.508Z,191.25
2019-02-08T09:26:10.847Z,191.25
2019-02-08T09:27:10.946Z,191.25
2019-02-08T09:28:11.142Z,191.25
2019-02-08T09:29:11.604Z,196.88
2019-02-08T09:30:11.562Z,191.25
2019-02-08T09:31:11.780Z,185.62
2019-02-08T09:32:12.014Z,180.00
2019-02-08T09:33:12.218Z,180.00
2019-02-08T09:34:12.578Z,185.62
2019-02-08T09:35:12.618Z,180.00
2019-02-08T09:36:13.002Z,180.00
2019-02-08T09:37:13.085Z,180.00
2019-02-08T09:38:13.265Z,174.38
2019-02-08T09:39:13.511Z,168.75
2019-02-08T09:40:13.708Z,168.75
2019-02-08T09:41:13.940Z,168.75
2019-02-08T09:42:14.166Z,168.75
2019-02-08T09:43:14.345Z,174.38
2019-02-08T09:44:14.573Z,174.38
2019-02-08T09:45:14.886Z,180.00
2019-02-08T09:46:15.028Z,180.00
2019-02-08T09:47:15.202Z,180.00
2019-02-08T09:48:15.413Z,180.00
2019-02-08T09:49:15.654Z,180.00
2019-02-08T09:50:15.910Z,180.00
2019-02-08T09:51:16.098Z,180.00
2019-02-08T09:52:16.287Z,174.38
2019-02-08T09:53:16.497Z,174.38
2019-02-08T09:54:16.732Z,174.38
2019-02-08T09:55:16.943Z,174.38
2019-02-08T09:56:17.193Z,180.00
2019-02-08T09:57:17.388Z,180.00
2019-02-08T09:58:17.589Z,180.00
2019-02-08T09:59:17.904Z,180.00
2019-02-08T10:00:18.033Z,180.00
2019-02-08T10:01:18.278Z,180.00
2019-02-08T10:02:18.478Z,180.00
2019-02-08T10:03:18.661Z,180.00
2019-02-08T10:04:18.899Z,180.00
2019-02-08T10:05:19.132Z,180.00
2019-02-08T10:06:19.386Z,180.00
2019-02-08T10:07:19.699Z,180.00
2019-02-08T10:08:19.760Z,180.00
2019-02-08T10:09:19.989Z,180.00
2019-02-08T10:10:20.224Z,180.00
2019-02-08T10:11:20.475Z,180.00
2019-02-08T10:12:20.661Z,180.00
2019-02-08T10:13:20.856Z,180.00
2019-02-08T10:14:21.059Z,180.00
2019-02-08T10:15:21.355Z,185.62
2019-02-08T10:16:21.509Z,180.00
2019-02-08T10:17:21.727Z,185.62
2019-02-08T10:18:21.921Z,180.00
2019-02-08T10:19:22.140Z,185.62
2019-02-08T10:20:22.368Z,185.62
2019-02-08T10:21:22.584Z,180.00
2019-02-08T10:22:22.796Z,185.62
2019-02-08T10:23:23.028Z,185.62
2019-02-08T10:24:23.179Z,185.62
2019-02-08T10:25:23.423Z,185.62
2019-02-08T10:26:23.688Z,185.62
2019-02-08T10:27:23.917Z,191.25
2019-02-08T10:28:24.073Z,191.25
2019-02-08T10:29:24.287Z,191.25
2019-02-08T10:30:24.511Z,196.88
2019-02-08T10:31:24.773Z,180.00
2019-02-08T10:32:25.026Z,185.62
2019-02-08T10:33:25.172Z,196.88
2019-02-08T10:34:25.387Z,191.25
2019-02-08T10:35:25.604Z,185.62
2019-02-08T10:36:25.846Z,191.25
2019-02-08T10:37:26.062Z,191.25
2019-02-08T10:38:26.261Z,191.25
2019-02-08T10:39:26.487Z,196.88
2019-02-08T10:40:26.818Z,202.50
2019-02-08T10:41:30.453Z,213.75
2019-02-08T10:42:27.134Z,230.62
2019-02-08T10:43:27.335Z,236.25
2019-02-08T10:44:27.548Z,236.25
2019-02-08T10:45:27.778Z,247.50
2019-02-08T10:46:27.988Z,253.12
2019-02-08T10:47:28.205Z,264.38
2019-02-08T10:48:28.499Z,270.00
2019-02-08T10:49:28.626Z,281.25
2019-02-08T10:50:28.837Z,292.50
2019-02-08T10:51:29.051Z,286.88
2019-02-08T10:52:29.299Z,292.50
2019-02-08T10:53:29.503Z,292.50
2019-02-08T10:54:29.725Z,303.75
2019-02-08T10:55:29.945Z,298.12
2019-02-08T10:56:30.207Z,320.62
2019-02-08T10:57:30.336Z,326.25
2019-02-08T10:58:30.562Z,320.62
2019-02-08T10:59:30.783Z,309.38
2019-02-08T11:00:31.007Z,315.00
2019-02-08T11:01:31.204Z,309.38
2019-02-08T11:02:31.407Z,309.38
2019-02-08T11:03:31.656Z,320.62
2019-02-08T11:04:31.941Z,320.62
2019-02-08T11:05:32.093Z,326.25
2019-02-08T11:06:32.301Z,320.62
2019-02-08T11:07:32.501Z,326.25
2019-02-08T11:08:32.962Z,326.25
2019-02-08T11:09:33.209Z,326.25
2019-02-08T11:10:33.429Z,315.00
2019-02-08T11:11:33.631Z,309.38
2019-02-08T11:12:33.872Z,326.25
2019-02-08T11:13:34.142Z,343.12
2019-02-08T11:14:34.305Z,343.12
2019-02-08T11:15:34.491Z,348.75
2019-02-08T11:16:34.706Z,354.38
2019-02-08T11:17:34.912Z,360.00
2019-02-08T11:18:35.151Z,354.38
2019-02-08T11:19:35.432Z,348.75
2019-02-08T11:20:35.586Z,337.50
2019-02-08T11:21:35.888Z,331.88
2019-02-08T11:22:36.001Z,331.88
2019-02-08T11:23:36.209Z,337.50
2019-02-08T11:24:36.429Z,337.50
2019-02-08T11:25:36.647Z,343.12
2019-02-08T11:26:36.848Z,343.12
2019-02-08T11:27:37.076Z,337.50
2019-02-08T11:28:37.303Z,337.50
2019-02-08T11:29:37.628Z,343.12
2019-02-08T11:30:37.724Z,348.75
2019-02-08T11:31:37.927Z,354.38
2019-02-08T11:32:43.132Z,348.75
2019-02-08T11:33:39.369Z,337.50
2019-02-08T11:34:38.588Z,331.88
2019-02-08T11:35:38.805Z,343.12
2019-02-08T11:36:38.996Z,331.88
2019-02-08T11:37:39.271Z,331.88
2019-02-08T11:38:39.426Z,331.88
2019-02-08T11:39:39.657Z,331.88
2019-02-08T11:40:39.852Z,337.50
2019-02-08T11:41:40.060Z,337.50
2019-02-08T11:42:40.275Z,371.25
2019-02-08T11:43:40.515Z,365.62
2019-02-08T11:44:40.898Z,376.88
2019-02-08T11:45:40.983Z,393.75
2019-02-08T11:46:41.119Z,376.88
2019-02-08T11:47:41.349Z,365.62
2019-02-08T11:48:41.591Z,354.38
2019-02-08T11:49:41.818Z,354.38
2019-02-08T11:50:42.016Z,348.75
2019-02-08T11:51:42.197Z,360.00
2019-02-08T11:52:42.429Z,348.75
2019-02-08T11:53:42.690Z,360.00
2019-02-08T11:54:42.991Z,360.00
2019-02-08T11:55:43.107Z,354.38
2019-02-08T11:56:43.286Z,371.25
2019-02-08T11:57:43.518Z,365.62
2019-02-08T11:58:43.768Z,410.62
2019-02-08T11:59:43.947Z,393.75
2019-02-08T12:00:44.180Z,382.50
2019-02-08T12:01:44.380Z,388.12
2019-02-08T12:02:44.733Z,382.50
2019-02-08T12:03:44.826Z,365.62
2019-02-08T12:04:45.025Z,376.88
2019-02-08T12:05:45.257Z,382.50
2019-02-08T12:06:45.443Z,371.25
2019-02-08T12:07:45.684Z,365.62
2019-02-08T12:08:45.955Z,360.00
2019-02-08T12:09:46.120Z,354.38
2019-02-08T12:10:46.399Z,348.75
2019-02-08T12:11:46.542Z,348.75
2019-02-08T12:12:46.794Z,354.38
2019-02-08T12:13:47.041Z,354.38
2019-02-08T12:14:47.223Z,354.38
2019-02-08T12:15:47.437Z,348.75
2019-02-08T12:16:47.670Z,348.75
2019-02-08T12:17:47.853Z,348.75
2019-02-08T12:18:48.410Z,348.75
2019-02-08T12:19:48.280Z,348.75
2019-02-08T12:20:48.517Z,343.12
2019-02-08T12:21:48.738Z,343.12
2019-02-08T12:22:48.937Z,348.75
2019-02-08T12:23:49.152Z,360.00
2019-02-08T12:24:49.362Z,376.88
2019-02-08T12:25:49.611Z,393.75
2019-02-08T12:26:49.917Z,376.88
2019-02-08T12:27:50.051Z,360.00
2019-02-08T12:28:50.255Z,348.75
2019-02-08T12:29:50.462Z,343.12
2019-02-08T12:30:50.722Z,343.12
2019-02-08T12:31:50.935Z,343.12
2019-02-08T12:32:51.129Z,337.50
2019-02-08T12:33:51.374Z,337.50
2019-02-08T12:34:51.573Z,331.88
2019-02-08T12:35:51.901Z,331.88
2019-02-08T12:36:52.019Z,326.25
2019-02-08T12:37:52.208Z,326.25
2019-02-08T12:38:52.448Z,315.00
2019-02-08T12:39:52.625Z,303.75
2019-02-08T12:40:52.853Z,292.50
2019-02-08T12:41:53.109Z,281.25
2019-02-08T12:42:53.283Z,275.62
2019-02-08T12:43:53.663Z,275.62
2019-02-08T12:44:53.718Z,286.88
2019-02-08T12:45:53.952Z,303.75
2019-02-08T12:46:54.417Z,309.38
2019-02-08T12:47:54.384Z,320.62
2019-02-08T12:48:54.626Z,337.50
2019-02-08T12:49:54.808Z,331.88
2019-02-08T12:50:55.016Z,315.00
2019-02-08T12:51:55.303Z,298.12
2019-02-08T12:52:55.439Z,309.38
2019-02-08T12:53:55.681Z,303.75
2019-02-08T12:54:55.871Z,298.12
2019-02-08T12:55:56.074Z,292.50
2019-02-08T12:56:56.346Z,281.25
2019-02-08T12:57:56.517Z,281.25